createdAt,value
2019-03-15T00:02:22.950Z,22.03
2019-03-15T00:04:53.289Z,22.05
2019-03-15T00:07:23.633Z,22.03
2019-03-15T00:09:53.961Z,22.06
2019-03-15T00:12:24.363Z,22.07
2019-03-15T00:14:54.654Z,22.06
2019-03-15T00:17:24.974Z,22.06
2019-03-15T00:19:55.361Z,22.08
2019-03-15T00:22:25.886Z,22.07
2019-03-15T00:24:56.272Z,22.06
2019-03-15T00:27:26.571Z,22.05
2019-03-15T00:29:57.616Z,22.06
2019-03-15T00:32:28.306Z,22.05
2019-03-15T00:34:59.065Z,22.07
2019-03-15T00:37:30.762Z,22.08
2019-03-15T00:40:01.529Z,22.08
2019-03-15T00:42:36.384Z,22.07
2019-03-15T00:45:08.344Z,22.08
2019-03-15T00:47:39.032Z,22.05
2019-03-15T00:50:10.208Z,22.06
2019-03-15T00:52:40.544Z,22.08
2019-03-15T00:55:10.953Z,22.08
2019-03-15T00:57:41.361Z,22.07
2019-03-15T01:00:12.926Z,22.08
2019-03-15T01:02:44.373Z,22.08
2019-03-15T01:05:14.887Z,22.07
2019-03-15T01:07:45.155Z,22.05
2019-03-15T01:10:15.614Z,22.07
2019-03-15T01:12:46.028Z,22.08
2019-03-15T01:15:16.539Z,22.10
2019-03-15T01:17:46.985Z,22.11
2019-03-15T01:20:17.235Z,22.10
2019-03-15T01:22:48.901Z,22.10
2019-03-15T01:25:19.250Z,22.07
2019-03-15T01:27:49.580Z,22.07
2019-03-15T01:30:24.834Z,22.08
2019-03-15T01:32:55.187Z,22.07
2019-03-15T01:35:25.443Z,22.10
2019-03-15T01:37:55.725Z,22.07
2019-03-15T01:40:26.092Z,22.06
2019-03-15T01:42:56.424Z,22.11
2019-03-15T01:45:26.896Z,22.12
2019-03-15T01:47:57.272Z,22.09
2019-03-15T01:50:27.603Z,22.06
2019-03-15T01:52:58.509Z,22.03
2019-03-15T01:55:28.897Z,22.00
2019-03-15T01:57:59.184Z,22.04
2019-03-15T02:00:29.429Z,22.04
2019-03-15T02:03:02.354Z,22.00
2019-03-15T02:05:31.792Z,21.99
2019-03-15T02:08:02.131Z,21.97
2019-03-15T02:10:32.792Z,22.00
2019-03-15T02:13:03.264Z,21.98
2019-03-15T02:15:33.597Z,21.97
2019-03-15T02:18:04.174Z,21.97
2019-03-15T02:20:34.777Z,21.94
2019-03-15T02:23:06.747Z,21.96
2019-03-15T02:25:37.310Z,21.97
2019-03-15T02:28:08.019Z,21.96
2019-03-15T02:30:38.340Z,21.93
2019-03-15T02:33:08.766Z,21.93
2019-03-15T02:35:39.183Z,21.93
2019-03-15T02:38:09.534Z,21.91
2019-03-15T02:40:40.232Z,21.91
2019-03-15T02:43:13.311Z,21.96
2019-03-15T02:45:43.651Z,21.92
2019-03-15T02:48:15.077Z,21.91
2019-03-15T02:50:47.209Z,21.91
2019-03-15T02:53:17.593Z,21.89
2019-03-15T02:55:48.532Z,21.88
2019-03-15T02:58:20.048Z,21.86
2019-03-15T03:00:50.411Z,21.85
2019-03-15T03:03:21.005Z,21.84
2019-03-15T03:05:51.333Z,21.83
2019-03-15T03:08:22.627Z,21.81
2019-03-15T03:10:53.105Z,21.80
2019-03-15T03:13:23.406Z,21.81
2019-03-15T03:15:53.843Z,21.82
2019-03-15T03:18:24.086Z,21.81
2019-03-15T03:20:54.425Z,21.80
2019-03-15T03:23:24.771Z,21.78
2019-03-15T03:25:55.677Z,21.76
2019-03-15T03:28:25.883Z,21.80
2019-03-15T03:30:56.194Z,21.80
2019-03-15T03:33:26.563Z,21.78
2019-03-15T03:35:56.856Z,21.78
2019-03-15T03:38:27.219Z,21.74
2019-03-15T03:40:57.487Z,21.77
2019-03-15T03:43:28.876Z,21.74
2019-03-15T03:45:59.126Z,21.78
2019-03-15T03:48:29.358Z,21.85
2019-03-15T03:51:00.363Z,21.89
2019-03-15T03:53:33.668Z,21.93
2019-03-15T03:56:04.005Z,21.92
2019-03-15T03:58:34.247Z,21.90
2019-03-15T04:01:07.423Z,21.89
2019-03-15T04:03:37.663Z,21.90
2019-03-15T04:06:07.902Z,21.93
2019-03-15T04:08:38.207Z,21.92
2019-03-15T04:11:08.561Z,21.94
2019-03-15T04:13:38.950Z,21.94
2019-03-15T04:16:12.051Z,21.96
2019-03-15T04:18:42.391Z,21.95
2019-03-15T04:21:13.088Z,21.94
2019-03-15T04:23:43.419Z,21.94
2019-03-15T04:26:14.814Z,21.94
2019-03-15T04:28:45.150Z,21.94
2019-03-15T04:31:15.391Z,21.95
2019-03-15T04:33:45.676Z,21.96
2019-03-15T04:36:16.176Z,21.95
2019-03-15T04:38:46.749Z,21.96
2019-03-15T04:41:18.075Z,21.97
2019-03-15T04:43:48.439Z,21.96
2019-03-15T04:46:18.780Z,21.96
2019-03-15T04:48:50.088Z,21.96
2019-03-15T04:51:20.412Z,21.96
2019-03-15T04:53:50.733Z,21.96
2019-03-15T04:56:21.101Z,21.96
2019-03-15T04:58:51.511Z,21.97
2019-03-15T05:01:21.829Z,21.94
2019-03-15T05:03:53.739Z,21.95
2019-03-15T05:06:24.039Z,21.94
2019-03-15T05:08:54.356Z,21.97
2019-03-15T05:11:24.591Z,21.93
2019-03-15T05:13:54.986Z,21.96
2019-03-15T05:16:25.999Z,21.96
2019-03-15T05:18:56.349Z,21.97
2019-03-15T05:21:27.755Z,21.98
2019-03-15T05:23:58.214Z,21.99
2019-03-15T05:26:28.658Z,21.99
2019-03-15T05:29:00.209Z,21.99
2019-03-15T05:31:30.567Z,21.99
2019-03-15T05:34:00.827Z,21.99
2019-03-15T05:36:31.152Z,21.98
2019-03-15T05:39:04.103Z,22.00
2019-03-15T05:41:34.483Z,22.01
2019-03-15T05:44:04.803Z,22.03
2019-03-15T05:46:35.055Z,22.03
2019-03-15T05:49:05.355Z,22.00
2019-03-15T05:51:35.696Z,21.99
2019-03-15T05:54:06.031Z,21.98
2019-03-15T05:56:36.347Z,21.98
2019-03-15T05:59:06.747Z,21.98
2019-03-15T06:01:37.046Z,21.98
2019-03-15T06:04:07.377Z,21.99
2019-03-15T06:06:38.101Z,21.98
2019-03-15T06:09:08.476Z,22.02
2019-03-15T06:11:38.790Z,22.01
2019-03-15T06:14:09.065Z,21.99
2019-03-15T06:16:39.352Z,22.00
2019-03-15T06:19:09.717Z,22.05
2019-03-15T06:21:40.081Z,22.08
2019-03-15T06:24:13.789Z,22.07
2019-03-15T06:26:45.519Z,22.10
2019-03-15T06:29:15.785Z,22.10
2019-03-15T06:31:46.197Z,22.09
2019-03-15T06:34:16.452Z,22.10
2019-03-15T06:36:46.702Z,22.12
2019-03-15T06:39:16.972Z,22.11
2019-03-15T06:41:47.295Z,22.12
2019-03-15T06:44:17.676Z,22.14
2019-03-15T06:46:48.123Z,22.12
2019-03-15T06:49:18.434Z,22.14
2019-03-15T06:51:48.762Z,22.11
2019-03-15T06:54:19.114Z,22.15
2019-03-15T06:56:49.478Z,22.14
2019-03-15T06:59:19.794Z,22.17
2019-03-15T07:01:50.733Z,22.19
2019-03-15T07:04:21.399Z,22.13
2019-03-15T07:06:51.660Z,22.17
2019-03-15T07:09:22.004Z,22.18
2019-03-15T07:11:52.376Z,22.21
2019-03-15T07:14:22.756Z,22.21
2019-03-15T07:16:52.976Z,22.19
2019-03-15T07:19:27.630Z,22.20
2019-03-15T07:21:55.811Z,22.23
2019-03-15T07:24:26.258Z,22.23
2019-03-15T07:26:56.384Z,22.22
2019-03-15T07:29:26.716Z,22.25
2019-03-15T07:31:57.646Z,22.23
2019-03-15T07:34:27.940Z,22.26
2019-03-15T07:36:58.273Z,22.26
2019-03-15T07:39:28.546Z,22.24
2019-03-15T07:42:00.922Z,22.26
2019-03-15T07:44:31.357Z,22.23
2019-03-15T07:47:02.107Z,22.25
2019-03-15T07:49:32.353Z,22.26
2019-03-15T07:52:03.995Z,22.26
2019-03-15T07:54:38.259Z,22.26
2019-03-15T07:57:06.536Z,22.27
2019-03-15T07:59:36.838Z,22.27
2019-03-15T08:02:08.722Z,22.24
2019-03-15T08:04:39.061Z,22.23
2019-03-15T08:07:09.378Z,22.26
2019-03-15T08:09:39.737Z,22.27
2019-03-15T08:12:09.991Z,22.23
2019-03-15T08:14:40.274Z,22.21
2019-03-15T08:17:10.581Z,22.22
2019-03-15T08:19:40.859Z,22.25
2019-03-15T08:22:11.241Z,22.24
2019-03-15T08:24:50.860Z,22.24
2019-03-15T08:27:16.088Z,22.23
2019-03-15T08:29:45.731Z,22.26
2019-03-15T08:32:16.080Z,22.26
2019-03-15T08:34:46.617Z,22.27
2019-03-15T08:37:16.976Z,22.27
2019-03-15T08:39:47.404Z,22.29
2019-03-15T08:42:17.703Z,22.27
2019-03-15T08:44:47.983Z,22.29
2019-03-15T08:47:21.537Z,22.26
2019-03-15T08:49:50.432Z,22.28
2019-03-15T08:52:20.781Z,22.27
2019-03-15T08:55:04.716Z,22.29
2019-03-15T08:57:24.407Z,22.29
2019-03-15T08:59:57.716Z,22.30
2019-03-15T09:02:26.703Z,22.23
2019-03-15T09:04:57.029Z,22.26
2019-03-15T09:07:27.315Z,22.26
2019-03-15T09:09:57.566Z,22.23
2019-03-15T09:12:29.591Z,22.27
2019-03-15T09:14:59.883Z,22.21
2019-03-15T09:17:30.251Z,22.24
2019-03-15T09:20:00.648Z,22.27
2019-03-15T09:22:31.361Z,22.23
2019-03-15T09:25:02.812Z,22.24
2019-03-15T09:27:33.254Z,22.22
2019-03-15T09:30:03.722Z,22.18
2019-03-15T09:32:34.053Z,22.20
2019-03-15T09:35:04.464Z,22.19
2019-03-15T09:37:35.162Z,22.22
2019-03-15T09:40:06.968Z,22.21
2019-03-15T09:42:37.223Z,22.23
2019-03-15T09:45:09.617Z,22.18
2019-03-15T09:47:39.871Z,22.17
2019-03-15T09:50:21.528Z,22.18
2019-03-15T09:52:43.283Z,22.22
2019-03-15T09:55:13.711Z,22.25
2019-03-15T09:57:44.000Z,22.22
2019-03-15T10:00:15.529Z,22.21
2019-03-15T10:02:45.831Z,22.22
2019-03-15T10:05:16.170Z,22.21
2019-03-15T10:07:46.618Z,22.19
2019-03-15T10:10:19.093Z,22.21
2019-03-15T10:12:50.803Z,22.21
2019-03-15T10:15:21.063Z,22.21
2019-03-15T10:17:51.454Z,22.22
2019-03-15T10:20:21.681Z,22.23
2019-03-15T10:23:05.607Z,22.22
2019-03-15T10:25:24.046Z,22.21
2019-03-15T10:27:55.523Z,22.22
2019-03-15T10:30:25.837Z,22.23
2019-03-15T10:32:56.134Z,22.24
2019-03-15T10:35:26.412Z,22.23
2019-03-15T10:37:56.824Z,22.25
2019-03-15T10:40:27.065Z,22.24
2019-03-15T10:42:57.498Z,22.24
2019-03-15T10:45:27.746Z,22.21
2019-03-15T10:47:58.152Z,22.21
2019-03-15T10:50:28.421Z,22.21
2019-03-15T10:52:58.813Z,22.21
2019-03-15T10:55:29.123Z,22.22
2019-03-15T10:57:59.530Z,22.14
2019-03-15T11:00:30.142Z,22.10
2019-03-15T11:03:00.446Z,22.05
2019-03-15T11:05:30.682Z,22.06
2019-03-15T11:08:01.033Z,22.07
2019-03-15T11:10:31.382Z,22.03
2019-03-15T11:13:01.696Z,22.04
2019-03-15T11:15:32.006Z,22.05
2019-03-15T11:18:02.375Z,22.04
2019-03-15T11:20:32.980Z,22.03
2019-03-15T11:23:03.374Z,22.06
2019-03-15T11:25:34.231Z,22.05
2019-03-15T11:28:04.554Z,22.04
2019-03-15T11:30:34.799Z,22.03
2019-03-15T11:33:05.176Z,22.06
2019-03-15T11:35:35.560Z,22.08
2019-03-15T11:38:05.954Z,22.04
2019-03-15T11:40:37.970Z,22.04
2019-03-15T11:43:08.190Z,22.05
2019-03-15T11:45:38.576Z,22.08
2019-03-15T11:48:09.236Z,22.07
2019-03-15T11:50:39.673Z,22.05
2019-03-15T11:53:10.044Z,22.03
2019-03-15T11:55:40.452Z,21.99
2019-03-15T11:58:11.191Z,22.01
2019-03-15T12:00:42.449Z,21.98
2019-03-15T12:03:12.737Z,21.95
2019-03-15T12:05:43.024Z,21.95
2019-03-15T12:08:13.345Z,21.95
2019-03-15T12:10:43.605Z,21.91
2019-03-15T12:13:14.002Z,21.93
2019-03-15T12:15:44.407Z,21.90
2019-03-15T12:18:14.701Z,21.91
2019-03-15T12:20:45.080Z,21.89
2019-03-15T12:23:15.963Z,21.90
2019-03-15T12:25:46.231Z,21.87
2019-03-15T12:28:16.485Z,21.86
2019-03-15T12:30:46.695Z,21.87
2019-03-15T12:33:16.918Z,21.85
2019-03-15T12:35:47.687Z,21.86
2019-03-15T12:38:17.955Z,21.87
2019-03-15T12:40:48.269Z,21.89
2019-03-15T12:43:18.511Z,21.85
2019-03-15T12:45:48.784Z,21.84
2019-03-15T12:48:19.655Z,21.85
2019-03-15T12:50:49.935Z,21.83
2019-03-15T12:53:18.545Z,21.84
2019-03-15T12:55:49.162Z,21.85
2019-03-15T12:58:19.614Z,21.84
2019-03-15T13:00:50.584Z,21.79
2019-03-15T13:03:20.942Z,21.83
2019-03-15T13:05:51.267Z,21.83
2019-03-15T13:08:22.204Z,21.80
2019-03-15T13:10:52.567Z,21.77
2019-03-15T13:13:22.945Z,21.79
2019-03-15T13:15:53.893Z,21.73
2019-03-15T13:18:24.127Z,21.73
2019-03-15T13:20:54.513Z,21.74
2019-03-15T13:23:28.367Z,21.75
2019-03-15T13:25:59.808Z,21.74
2019-03-15T13:28:31.492Z,21.75
2019-03-15T13:31:06.290Z,21.72
2019-03-15T13:33:36.530Z,21.69
2019-03-15T13:36:06.913Z,21.67
2019-03-15T13:38:37.117Z,21.72
2019-03-15T13:41:07.500Z,21.70
2019-03-15T13:43:38.179Z,21.73
2019-03-15T13:46:08.427Z,21.72
2019-03-15T13:48:38.780Z,21.72
2019-03-15T13:51:09.075Z,21.74
2019-03-15T13:53:39.417Z,21.73
2019-03-15T13:56:10.080Z,21.75
2019-03-15T13:58:40.463Z,21.73
2019-03-15T14:01:11.267Z,21.71
2019-03-15T14:03:41.662Z,21.70
2019-03-15T14:06:12.273Z,21.69
2019-03-15T14:08:59.900Z,21.71
2019-03-15T14:11:36.503Z,21.69
2019-03-15T14:14:17.283Z,21.71
2019-03-15T14:16:57.806Z,21.70
2019-03-15T14:19:35.195Z,21.69
2019-03-15T14:22:12.464Z,21.70
2019-03-15T14:24:48.552Z,21.69
2019-03-15T14:27:37.562Z,21.69
2019-03-15T14:30:16.558Z,21.67
2019-03-15T14:32:55.164Z,21.67
2019-03-15T14:35:37.837Z,21.64
2019-03-15T14:38:13.944Z,21.64
2019-03-15T14:40:54.839Z,21.64
2019-03-15T14:43:31.411Z,21.62
2019-03-15T14:46:11.744Z,21.64
2019-03-15T14:48:46.059Z,21.64
2019-03-15T14:51:25.076Z,21.63
2019-03-15T14:54:03.045Z,21.59
2019-03-15T14:56:38.436Z,21.62
2019-03-15T14:59:08.700Z,21.62
2019-03-15T15:01:39.109Z,21.64
2019-03-15T15:04:09.439Z,21.64
2019-03-15T15:06:39.708Z,21.66
2019-03-15T15:09:09.953Z,21.65
2019-03-15T15:11:40.355Z,21.62
2019-03-15T15:14:15.752Z,21.58
2019-03-15T15:16:49.067Z,21.54
2019-03-15T15:19:22.876Z,21.48
2019-03-15T15:22:00.197Z,21.42
2019-03-15T15:24:44.512Z,21.43
2019-03-15T15:27:18.118Z,21.46
2019-03-15T15:29:54.252Z,21.52
2019-03-15T15:32:28.297Z,21.49
2019-03-15T15:35:02.568Z,21.50
2019-03-15T15:37:33.549Z,21.44
2019-03-15T15:40:03.828Z,21.44
2019-03-15T15:42:34.608Z,21.44
2019-03-15T15:45:05.375Z,21.37
2019-03-15T15:47:35.689Z,21.30
2019-03-15T15:50:06.134Z,21.23
2019-03-15T15:52:36.424Z,21.22
2019-03-15T15:55:06.781Z,21.22
2019-03-15T15:57:37.100Z,21.23
2019-03-15T16:00:09.097Z,21.20
2019-03-15T16:02:39.456Z,21.15
2019-03-15T16:05:10.002Z,21.11
2019-03-15T16:07:43.175Z,21.13
2019-03-15T16:10:13.504Z,21.10
2019-03-15T16:12:46.338Z,21.19
2019-03-15T16:15:16.568Z,21.20
2019-03-15T16:17:46.931Z,21.30
2019-03-15T16:20:19.237Z,21.32
2019-03-15T16:22:49.467Z,21.29
2019-03-15T16:25:19.888Z,21.27
2019-03-15T16:27:50.143Z,21.30
2019-03-15T16:30:20.453Z,21.30
2019-03-15T16:32:50.654Z,21.27
2019-03-15T16:35:22.911Z,21.23
2019-03-15T16:37:55.504Z,21.18
2019-03-15T16:40:28.289Z,21.21
2019-03-15T16:42:58.582Z,21.24
2019-03-15T16:45:32.290Z,21.26
2019-03-15T16:48:03.357Z,21.30
2019-03-15T16:50:33.682Z,21.33
2019-03-15T16:53:03.977Z,21.33
2019-03-15T16:55:34.456Z,21.35
2019-03-15T16:58:10.513Z,21.34
2019-03-15T17:00:41.210Z,21.38
2019-03-15T17:03:11.735Z,21.41
2019-03-15T17:05:42.739Z,21.42
2019-03-15T17:08:13.357Z,21.43
2019-03-15T17:10:43.952Z,21.42
2019-03-15T17:13:14.293Z,21.39
2019-03-15T17:15:44.872Z,21.43
2019-03-15T17:18:15.450Z,21.44
2019-03-15T17:20:46.120Z,21.42
2019-03-15T17:23:16.651Z,21.44
2019-03-15T17:25:48.259Z,21.48
2019-03-15T17:28:19.089Z,21.48
2019-03-15T17:30:51.572Z,21.46
2019-03-15T17:33:21.883Z,21.46
2019-03-15T17:35:52.332Z,21.46
2019-03-15T17:38:22.655Z,21.45
2019-03-15T17:40:52.979Z,21.44
2019-03-15T17:43:24.324Z,21.46
2019-03-15T17:45:54.664Z,21.48
2019-03-15T17:48:25.043Z,21.49
2019-03-15T17:50:55.460Z,21.52
2019-03-15T17:53:25.713Z,21.52
2019-03-15T17:55:56.725Z,21.53
2019-03-15T17:58:27.011Z,21.53
2019-03-15T18:00:57.334Z,21.53
2019-03-15T18:03:27.710Z,21.54
2019-03-15T18:05:58.309Z,21.56
2019-03-15T18:08:28.640Z,21.56
2019-03-15T18:11:01.128Z,21.57
2019-03-15T18:13:31.565Z,21.57
2019-03-15T18:16:01.815Z,21.59
2019-03-15T18:18:32.131Z,21.59
2019-03-15T18:21:02.521Z,21.57
2019-03-15T18:23:33.089Z,21.58
2019-03-15T18:26:03.654Z,21.60
2019-03-15T18:28:34.016Z,21.61
2019-03-15T18:31:04.427Z,21.61
2019-03-15T18:33:34.686Z,21.62
2019-03-15T18:36:05.137Z,21.61
2019-03-15T18:38:35.426Z,21.62
2019-03-15T18:41:05.682Z,21.62
2019-03-15T18:43:35.967Z,21.64
2019-03-15T18:46:06.295Z,21.64
2019-03-15T18:48:36.697Z,21.65
2019-03-15T18:51:07.037Z,21.66
2019-03-15T18:53:37.302Z,21.65
2019-03-15T18:56:09.859Z,21.67
2019-03-15T18:58:40.159Z,21.67
2019-03-15T19:01:10.483Z,21.69
2019-03-15T19:03:40.872Z,21.71
2019-03-15T19:06:11.201Z,21.72
2019-03-15T19:08:41.581Z,21.71
2019-03-15T19:11:11.862Z,21.70
2019-03-15T19:13:42.207Z,21.72
2019-03-15T19:16:20.087Z,21.73
2019-03-15T19:18:45.774Z,21.73
2019-03-15T19:21:16.355Z,21.74
2019-03-15T19:23:46.617Z,21.74
2019-03-15T19:26:16.987Z,21.75
2019-03-15T19:28:47.349Z,21.76
2019-03-15T19:31:17.642Z,21.77
2019-03-15T19:33:48.323Z,21.78
2019-03-15T19:36:18.689Z,21.78
2019-03-15T19:38:51.124Z,21.79
2019-03-15T19:41:21.343Z,21.78
2019-03-15T19:43:51.660Z,21.79
2019-03-15T19:46:21.951Z,21.80
2019-03-15T19:48:52.670Z,21.81
2019-03-15T19:51:23.188Z,21.80
2019-03-15T19:53:53.508Z,21.81
2019-03-15T19:56:23.897Z,21.81
2019-03-15T19:58:54.483Z,21.83
2019-03-15T20:01:24.776Z,21.83
2019-03-15T20:03:55.100Z,21.85
2019-03-15T20:06:25.594Z,21.87
2019-03-15T20:08:55.924Z,21.87
2019-03-15T20:11:27.348Z,21.86
2019-03-15T20:13:57.882Z,21.86
2019-03-15T20:16:28.360Z,21.87
2019-03-15T20:18:58.691Z,21.89
2019-03-15T20:21:29.183Z,21.92
2019-03-15T20:23:59.618Z,21.90
2019-03-15T20:26:29.925Z,21.88
2019-03-15T20:29:01.575Z,21.88
2019-03-15T20:31:31.971Z,21.88
2019-03-15T20:34:02.335Z,21.92
2019-03-15T20:36:33.819Z,21.98
2019-03-15T20:39:06.651Z,21.98
2019-03-15T20:41:37.735Z,22.02
2019-03-15T20:44:08.382Z,22.03
2019-03-15T20:46:40.307Z,22.04
2019-03-15T20:49:11.285Z,22.05
2019-03-15T20:51:44.935Z,22.07
2019-03-15T20:54:15.408Z,22.08
2019-03-15T20:56:47.467Z,22.07
2019-03-15T20:59:18.550Z,22.09
2019-03-15T21:01:49.450Z,22.08
2019-03-15T21:04:20.954Z,22.09
2019-03-15T21:06:54.254Z,22.09
2019-03-15T21:09:25.241Z,22.10
2019-03-15T21:11:56.466Z,22.10
2019-03-15T21:14:30.514Z,22.11
2019-03-15T21:17:01.916Z,22.11
2019-03-15T21:19:32.752Z,22.11
2019-03-15T21:22:04.134Z,22.14
2019-03-15T21:24:34.484Z,22.11
2019-03-15T21:27:08.423Z,22.07
2019-03-15T21:29:38.942Z,22.07
2019-03-15T21:32:09.383Z,22.04
2019-03-15T21:34:39.753Z,21.98
2019-03-15T21:37:10.188Z,21.99
2019-03-15T21:39:40.424Z,22.01
2019-03-15T21:42:10.868Z,22.00
2019-03-15T21:44:41.142Z,22.01
2019-03-15T21:47:11.425Z,22.00
2019-03-15T21:49:41.766Z,21.96
2019-03-15T21:52:12.096Z,21.95
2019-03-15T21:54:42.455Z,21.94
2019-03-15T21:57:12.771Z,21.92
2019-03-15T21:59:43.105Z,21.89
2019-03-15T22:02:15.214Z,21.87
2019-03-15T22:04:45.574Z,21.85
2019-03-15T22:07:16.003Z,21.90
2019-03-15T22:09:46.276Z,21.86
2019-03-15T22:12:16.633Z,21.78
2019-03-15T22:14:47.033Z,21.80
2019-03-15T22:17:17.283Z,21.79
2019-03-15T22:19:47.534Z,21.83
2019-03-15T22:22:20.207Z,21.83
2019-03-15T22:24:49.877Z,21.86
2019-03-15T22:27:23.025Z,21.92
2019-03-15T22:29:54.012Z,21.96
2019-03-15T22:32:25.416Z,21.99
2019-03-15T22:34:57.312Z,22.00
2019-03-15T22:37:27.626Z,21.98
2019-03-15T22:39:58.013Z,22.00
2019-03-15T22:42:28.305Z,22.01
2019-03-15T22:44:58.639Z,22.00
2019-03-15T22:47:30.637Z,22.00
2019-03-15T22:50:01.846Z,22.00
2019-03-15T22:52:32.259Z,22.02
2019-03-15T22:55:02.622Z,22.03
2019-03-15T22:57:33.864Z,22.01
2019-03-15T23:00:05.897Z,22.00
2019-03-15T23:02:38.220Z,22.00
2019-03-15T23:05:08.646Z,22.00
2019-03-15T23:07:39.034Z,22.00
2019-03-15T23:10:09.518Z,21.99
2019-03-15T23:12:39.822Z,22.00
2019-03-15T23:15:10.122Z,22.00
2019-03-15T23:17:40.467Z,22.00
2019-03-15T23:20:10.818Z,22.00
2019-03-15T23:22:41.201Z,21.99
2019-03-15T23:25:11.582Z,21.99
2019-03-15T23:27:41.859Z,21.99
2019-03-15T23:30:15.079Z,21.98
2019-03-15T23:32:46.456Z,21.98
2019-03-15T23:35:16.775Z,21.97
2019-03-15T23:37:47.027Z,21.95
2019-03-15T23:40:17.330Z,21.95
2019-03-15T23:42:49.468Z,21.98
2019-03-15T23:45:19.799Z,21.96
2019-03-15T23:47:50.078Z,21.96
2019-03-15T23:50:20.380Z,21.95
2019-03-15T23:52:50.706Z,21.94
2019-03-15T23:55:21.006Z,21.93
2019-03-15T23:57:51.334Z,21.92
